Time;durP1;ratioP1;P1;durP2;ratioP2;P2;SDS_P1;SDS_P2;PMS_P1;PMS_P2;Temp;Humidity;BMP_temperature;BMP_pressure;BME280_temperature;BME280_humidity;BME280_pressure;Samples;Min_cycle;Max_cycle;Signal;HPM_P1;HPM_P2
2021/12/21 06:54:46;;;;;;;21.08;10.63;;;;;;;;;;10551853;28;20033;-85
2021/12/21 06:59:47;;;;;;;21.58;11.85;;;;;;;;;;10532148;28;20463;-84
2021/12/21 07:04:48;;;;;;;29.58;16.48;;;;;;;;;;10530854;28;20037;-85
2021/12/21 07:09:58;;;;;;;20.33;12.40;;;;;;;;;;10531833;28;20115;-85
2021/12/21 07:20:19;;;;;;;23.17;14.48;;;;;;;;;;10552366;28;20486;-85
2021/12/21 07:25:20;;;;;;;19.40;11.48;;;;;;;;;;10535181;28;20463;-85
2021/12/21 07:30:21;;;;;;;30.13;17.17;;;;;;;;;;10533217;28;20020;-85
2021/12/21 07:35:22;;;;;;;26.70;16.20;;;;;;;;;;10530436;28;20032;-85
2021/12/21 07:40:23;;;;;;;24.27;14.25;;;;;;;;;;10533053;28;20078;-85
2021/12/21 07:45:25;;;;;;;24.45;13.65;;;;;;;;;;10532851;28;20119;-85
2021/12/21 07:50:26;;;;;;;;;;;;;;;;;;10542185;28;20032;-82
2021/12/21 07:55:27;;;;;;;27.63;14.75;;;;;;;;;;10566391;28;19913;-82
2021/12/21 08:00:28;;;;;;;22.13;12.32;;;;;;;;;;10557279;28;20016;-85
2021/12/21 08:05:32;;;;;;;29.40;14.93;;;;;;;;;;10517476;28;20059;-85
2021/12/21 08:10:43;;;;;;;31.42;17.30;;;;;;;;;;10499979;28;20407;-86
2021/12/21 08:15:44;;;;;;;27.50;16.90;;;;;;;;;;10498302;28;20028;-82
2021/12/21 08:20:45;;;;;;;24.30;14.80;;;;;;;;;;10499315;28;20035;-82
2021/12/21 08:25:46;;;;;;;21.65;13.60;;;;;;;;;;10498672;28;20457;-82
2021/12/21 08:30:47;;;;;;;;;;;;;;;;;;10500056;28;20496;-83
2021/12/21 08:35:48;;;;;;;23.05;14.50;;;;;;;;;;10518663;28;19926;-82
2021/12/21 08:40:50;;;;;;;;;;;;;;;;;;10517713;28;20490;-81
2021/12/21 08:46:09;;;;;;;25.35;16.00;;;;;;;;;;10497461;22;19921;-84
2021/12/21 08:51:10;;;;;;;22.48;13.23;;;;;;;;;;10426253;28;20026;-83
2021/12/21 08:56:11;;;;;;;21.80;13.68;;;;;;;;;;10428494;28;20513;-82
2021/12/21 09:01:12;;;;;;;22.33;13.27;;;;;;;;;;10448273;28;20036;-84
2021/12/21 09:06:13;;;;;;;21.25;12.82;;;;;;;;;;10449293;28;20079;-83
2021/12/21 09:11:19;;;;;;;21.02;13.35;;;;;;;;;;10447736;28;20107;-84
2021/12/21 09:16:22;;;;;;;20.75;12.85;;;;;;;;;;10449079;28;20025;-83
2021/12/21 09:21:23;;;;;;;20.35;12.95;;;;;;;;;;10448756;28;20155;-84
2021/12/21 09:26:24;;;;;;;20.13;12.05;;;;;;;;;;10447737;28;20407;-84
2021/12/21 09:31:25;;;;;;;;;;;;;;;;;;10453323;28;20479;-84
2021/12/21 09:36:28;;;;;;;23.17;13.57;;;;;;;;;;10449716;28;19916;-83
2021/12/21 09:41:29;;;;;;;25.60;14.55;;;;;;;;;;10448701;28;20051;-81
2021/12/21 09:46:30;;;;;;;;;;;;;;;;;;10448568;28;20037;-82
2021/12/21 09:51:31;;;;;;;34.35;19.70;;;;;;;;;;10448397;28;19992;-82
2021/12/21 09:56:32;;;;;;;;;;;;;;;;;;10450152;28;20025;-82
2021/12/21 10:01:33;;;;;;;35.90;21.42;;;;;;;;;;10452868;28;19904;-83
2021/12/21 10:06:34;;;;;;;;;;;;;;;;;;10452845;28;20548;-82
2021/12/21 10:11:47;;;;;;;43.05;22.25;;;;;;;;;;10447181;28;19908;-82
2021/12/21 10:16:48;;;;;;;40.88;23.35;;;;;;;;;;10452001;28;20040;-82
2021/12/21 10:21:49;;;;;;;;;;;;;;;;;;10452065;28;20116;-81
2021/12/21 10:26:52;;;;;;;37.42;22.88;;;;;;;;;;10446848;28;20255;-84
2021/12/21 10:31:53;;;;;;;40.72;22.80;;;;;;;;;;10462569;28;20029;-82
2021/12/21 10:36:58;;;;;;;36.28;21.92;;;;;;;;;;10464276;28;20033;-82
2021/12/21 10:42:03;;;;;;;35.53;21.75;;;;;;;;;;10451693;28;20112;-84
2021/12/21 10:47:05;;;;;;;36.47;21.17;;;;;;;;;;10460868;28;20043;-82
2021/12/21 10:52:08;;;;;;;33.20;20.05;;;;;;;;;;10455141;28;20044;-82
2021/12/21 10:57:11;;;;;;;34.92;19.65;;;;;;;;;;10463491;28;20033;-83
2021/12/21 11:02:14;;;;;;;41.25;24.83;;;;;;;;;;10479306;28;20021;-82
2021/12/21 11:13:01;;;;;;;35.47;19.17;;;;;;;;;;10475213;28;20041;-84
2021/12/21 11:18:17;;;;;;;35.30;20.42;;;;;;;;;;10453502;28;20553;-83
2021/12/21 11:23:22;;;;;;;34.92;19.70;;;;;;;;;;10434897;28;20036;-81
2021/12/21 11:28:26;;;;;;;33.60;18.88;;;;;;;;;;10449540;28;20036;-83
2021/12/21 11:33:34;;;;;;;33.17;19.35;;;;;;;;;;10453059;28;20079;-82
2021/12/21 11:38:35;;;;;;;34.20;19.58;;;;;;;;;;10462982;28;20079;-81
2021/12/21 11:43:36;;;;;;;;;;;;;;;;;;10456666;28;20048;-81
2021/12/21 11:48:56;;;;;;;39.70;23.95;;;;;;;;;;10458085;28;19912;-81
2021/12/21 11:54:00;;;;;;;35.17;19.88;;;;;;;;;;10456566;28;20029;-82
2021/12/21 11:59:03;;;;;;;34.22;20.50;;;;;;;;;;10453981;28;20033;-82
2021/12/21 12:04:08;;;;;;;36.67;20.48;;;;;;;;;;10452668;28;20040;-81
2021/12/21 12:09:12;;;;;;;36.15;20.20;;;;;;;;;;10452618;28;20028;-82
2021/12/21 12:14:21;;;;;;;38.55;22.25;;;;;;;;;;10469885;28;20036;-83
2021/12/21 12:19:30;;;;;;;38.38;21.60;;;;;;;;;;10470698;28;20348;-82
2021/12/21 12:24:37;;;;;;;39.63;21.58;;;;;;;;;;10453542;28;20021;-81
2021/12/21 12:29:57;;;;;;;36.72;21.20;;;;;;;;;;10451260;28;20323;-82
2021/12/21 12:35:09;;;;;;;43.05;22.73;;;;;;;;;;10451059;28;20064;-81
2021/12/21 12:40:14;;;;;;;42.95;24.58;;;;;;;;;;10448415;28;20025;-82
2021/12/21 12:45:20;;;;;;;37.58;20.27;;;;;;;;;;10466381;28;20056;-82
2021/12/21 12:50:30;;;;;;;42.25;22.77;;;;;;;;;;10450574;28;20116;-83
2021/12/21 12:55:39;;;;;;;41.17;20.77;;;;;;;;;;10451949;28;20032;-83
2021/12/21 13:00:43;;;;;;;37.20;19.95;;;;;;;;;;10454583;28;20116;-82
2021/12/21 13:05:52;;;;;;;37.40;19.58;;;;;;;;;;10463451;28;20032;-82
2021/12/21 13:10:56;;;;;;;35.17;20.50;;;;;;;;;;10463979;28;20151;-82
2021/12/21 13:15:57;;;;;;;35.42;18.90;;;;;;;;;;10456462;28;20029;-80
2021/12/21 13:20:59;;;;;;;36.25;20.17;;;;;;;;;;10448660;28;20025;-81
2021/12/21 13:26:01;;;;;;;33.38;21.38;;;;;;;;;;10446883;28;20067;-81
2021/12/21 13:31:05;;;;;;;31.77;20.20;;;;;;;;;;10446907;28;20033;-80
2021/12/21 13:36:07;;;;;;;31.15;20.63;;;;;;;;;;10451524;28;20060;-80
2021/12/21 13:41:10;;;;;;;29.13;19.55;;;;;;;;;;10460654;28;20028;-80
2021/12/21 13:46:11;;;;;;;28.60;20.77;;;;;;;;;;10464486;28;20040;-80
2021/12/21 13:51:12;;;;;;;;;;;;;;;;;;10459511;28;20094;-80
2021/12/21 13:56:17;;;;;;;27.40;17.45;;;;;;;;;;10454458;28;19931;-81
2021/12/21 14:01:29;;;;;;;24.88;16.73;;;;;;;;;;10473251;28;20115;-79
2021/12/21 14:06:30;;;;;;;24.48;16.42;;;;;;;;;;10452752;28;20021;-79
2021/12/21 14:11:31;;;;;;;;;;;;;;;;;;10453221;28;20033;-80
2021/12/21 14:16:32;;;;;;;21.67;15.18;;;;;;;;;;10455125;28;19981;-79
2021/12/21 14:21:38;;;;;;;22.13;15.70;;;;;;;;;;10462432;28;20040;-80
2021/12/21 14:26:59;;;;;;;20.88;13.43;;;;;;;;;;10464917;28;20025;-82
2021/12/21 14:37:09;;;;;;;19.90;12.70;;;;;;;;;;10466453;28;20040;-80
2021/12/21 14:42:12;;;;;;;18.58;13.38;;;;;;;;;;10449548;28;20092;-80
2021/12/21 14:47:17;;;;;;;18.77;12.45;;;;;;;;;;10503876;22;20041;-81
2021/12/21 14:53:08;;;;;;;17.23;12.30;;;;;;;;;;10465045;28;20029;-80
2021/12/21 14:57:45;;;;;;;18.38;12.13;;;;;;;;;;10470441;28;20056;-81
2021/12/21 15:07:49;;;;;;;16.75;12.20;;;;;;;;;;10487286;28;20041;-81
2021/12/21 15:12:50;;;;;;;15.57;11.68;;;;;;;;;;10478468;28;20402;-81
2021/12/21 15:17:52;;;;;;;15.75;11.25;;;;;;;;;;10466787;28;20051;-82
2021/12/21 15:22:53;;;;;;;13.38;10.10;;;;;;;;;;10467892;28;20025;-82
2021/12/21 15:27:54;;;;;;;;;;;;;;;;;;10474626;28;20025;-81
2021/12/21 15:32:58;;;;;;;14.23;9.82;;;;;;;;;;10472009;28;19964;-85
2021/12/21 15:38:00;;;;;;;14.30;10.35;;;;;;;;;;10482440;28;20079;-83
2021/12/21 15:43:06;;;;;;;14.35;10.40;;;;;;;;;;10477975;28;20108;-81
2021/12/21 15:48:07;;;;;;;13.60;10.25;;;;;;;;;;10493976;28;20037;-82
2021/12/21 15:53:08;;;;;;;14.05;11.68;;;;;;;;;;10478268;28;20418;-83
2021/12/21 15:58:09;;;;;;;12.35;10.27;;;;;;;;;;10471053;28;20036;-81
2021/12/21 16:03:10;;;;;;;11.20;8.93;;;;;;;;;;10471640;28;20466;-80
2021/12/21 16:08:11;;;;;;;;;;;;;;;;;;10471635;28;20063;-80
2021/12/21 16:13:12;;;;;;;17.65;13.75;;;;;;;;;;10492058;28;19905;-83
2021/12/21 16:18:13;;;;;;;12.02;9.20;;;;;;;;;;10471818;28;20029;-81
2021/12/21 16:23:14;;;;;;;;;;;;;;;;;;10491869;28;20443;-81
2021/12/21 16:28:17;;;;;;;12.25;9.48;;;;;;;;;;10491003;28;19948;-84
2021/12/21 16:33:18;;;;;;;12.82;9.32;;;;;;;;;;10486060;28;20044;-82
2021/12/21 16:38:20;;;;;;;10.57;8.82;;;;;;;;;;10471597;28;20041;-81
2021/12/21 16:43:31;;;;;;;10.93;9.40;;;;;;;;;;10491470;28;20057;-82
2021/12/21 16:48:32;;;;;;;14.45;11.82;;;;;;;;;;10471311;28;20032;-82
2021/12/21 16:53:34;;;;;;;15.88;12.70;;;;;;;;;;10471306;28;20036;-81
2021/12/21 16:58:40;;;;;;;14.55;11.50;;;;;;;;;;10468311;28;20025;-82
2021/12/21 17:03:41;;;;;;;15.85;12.70;;;;;;;;;;10473937;28;20021;-82
2021/12/21 17:08:44;;;;;;;14.48;11.07;;;;;;;;;;10488951;28;20090;-81
2021/12/21 17:13:45;;;;;;;14.27;10.80;;;;;;;;;;10466133;28;20092;-83
2021/12/21 17:18:47;;;;;;;10.45;8.63;;;;;;;;;;10466735;28;20025;-85
2021/12/21 17:23:49;;;;;;;18.02;13.70;;;;;;;;;;10460033;28;20025;-82
2021/12/21 17:28:50;;;;;;;17.90;13.77;;;;;;;;;;10457569;28;20021;-83
2021/12/21 17:33:55;;;;;;;18.55;14.00;;;;;;;;;;10464761;28;20044;-82
2021/12/21 17:38:56;;;;;;;18.77;14.30;;;;;;;;;;10471366;28;20032;-83
2021/12/21 17:43:57;;;;;;;19.38;14.18;;;;;;;;;;10471346;28;20105;-84
2021/12/21 17:48:58;;;;;;;19.52;14.43;;;;;;;;;;10470248;28;20072;-83
2021/12/21 17:53:59;;;;;;;18.20;13.70;;;;;;;;;;10468277;28;20055;-83
2021/12/21 17:59:01;;;;;;;16.95;12.80;;;;;;;;;;10469794;28;20062;-83
2021/12/21 18:04:02;;;;;;;24.42;16.23;;;;;;;;;;10466544;28;20031;-83
2021/12/21 18:09:03;;;;;;;17.48;12.02;;;;;;;;;;10467125;28;20032;-83
2021/12/21 18:14:06;;;;;;;24.70;15.52;;;;;;;;;;10467094;28;20124;-83
2021/12/21 18:19:07;;;;;;;32.80;20.50;;;;;;;;;;10467957;28;20033;-83
2021/12/21 18:24:09;;;;;;;16.25;11.75;;;;;;;;;;10482812;28;20089;-85
2021/12/21 18:29:14;;;;;;;18.23;12.07;;;;;;;;;;10476607;28;20025;-83
2021/12/21 18:34:15;;;;;;;26.00;15.55;;;;;;;;;;10473351;28;20047;-84
2021/12/21 18:39:19;;;;;;;24.02;14.65;;;;;;;;;;10472470;28;20036;-84
2021/12/21 18:44:20;;;;;;;16.77;11.80;;;;;;;;;;10467981;28;20028;-84
2021/12/21 18:49:23;;;;;;;15.93;11.25;;;;;;;;;;10468141;28;20059;-84
2021/12/21 18:54:24;;;;;;;24.67;16.08;;;;;;;;;;10466254;28;20036;-84
2021/12/21 18:59:25;;;;;;;32.67;21.15;;;;;;;;;;10466472;28;20025;-84
2021/12/21 19:04:26;;;;;;;26.42;17.38;;;;;;;;;;10482131;28;20048;-83
2021/12/21 19:09:27;;;;;;;21.67;14.45;;;;;;;;;;10461977;28;20108;-84
2021/12/21 19:14:28;;;;;;;26.95;16.52;;;;;;;;;;10464942;28;20052;-84
2021/12/21 19:19:29;;;;;;;17.38;12.27;;;;;;;;;;10469264;28;20051;-83
2021/12/21 19:24:30;;;;;;;23.08;14.70;;;;;;;;;;10464839;28;20047;-83
2021/12/21 19:29:31;;;;;;;23.50;15.45;;;;;;;;;;10464426;28;20029;-84
2021/12/21 19:34:32;;;;;;;28.25;17.92;;;;;;;;;;10461169;28;20094;-83
2021/12/21 19:39:33;;;;;;;28.42;17.48;;;;;;;;;;10457271;28;20029;-83
2021/12/21 19:44:34;;;;;;;26.45;16.63;;;;;;;;;;10457738;28;20017;-83
2021/12/21 19:49:35;;;;;;;23.65;14.73;;;;;;;;;;10457452;28;20037;-84
2021/12/21 19:54:36;;;;;;;;;;;;;;;;;;10461503;28;20021;-84
2021/12/21 19:59:37;;;;;;;31.05;19.10;;;;;;;;;;10465479;28;20294;-83
2021/12/21 20:04:39;;;;;;;46.97;26.58;;;;;;;;;;10474933;28;20056;-83
2021/12/21 20:09:40;;;;;;;29.55;16.88;;;;;;;;;;10488924;28;20032;-83
2021/12/21 20:14:42;;;;;;;;;;;;;;;;;;10488704;28;20096;-83
2021/12/21 20:19:45;;;;;;;27.27;15.93;;;;;;;;;;10470029;28;19909;-84
2021/12/21 20:24:48;;;;;;;27.02;15.55;;;;;;;;;;10468119;28;20032;-84
2021/12/21 20:29:49;;;;;;;23.52;14.32;;;;;;;;;;10463973;28;20033;-83
2021/12/21 20:34:50;;;;;;;24.33;15.18;;;;;;;;;;10464258;28;20036;-83
2021/12/21 20:39:53;;;;;;;30.15;16.42;;;;;;;;;;10458404;28;20041;-83
2021/12/21 20:44:54;;;;;;;27.92;17.70;;;;;;;;;;10483238;28;20067;-85
2021/12/21 20:49:55;;;;;;;28.02;16.60;;;;;;;;;;10454626;28;20137;-87
2021/12/21 20:54:56;;;;;;;22.25;13.77;;;;;;;;;;10454016;28;20032;-87
2021/12/21 20:59:57;;;;;;;26.27;16.33;;;;;;;;;;10454319;28;20029;-87
2021/12/21 21:04:58;;;;;;;28.73;18.70;;;;;;;;;;10452406;28;20136;-87
2021/12/21 21:09:59;;;;;;;26.50;17.27;;;;;;;;;;10454988;28;20025;-87
